sensor_id;sensor_type;location;lat;lon;timestamp;temperature;humidity
9157;DHT22;4613;48.392;9.998;2023-06-14T00:00:49;16.20;76.20
9157;DHT22;4613;48.392;9.998;2023-06-14T00:03:38;16.30;76.70
9157;DHT22;4613;48.392;9.998;2023-06-14T00:06:31;16.30;76.40
9157;DHT22;4613;48.392;9.998;2023-06-14T00:09:20;16.10;76.50
9157;DHT22;4613;48.392;9.998;2023-06-14T00:12:09;16.00;76.90
9157;DHT22;4613;48.392;9.998;2023-06-14T00:14:58;16.00;77.10
9157;DHT22;4613;48.392;9.998;2023-06-14T00:17:48;15.90;77.30
9157;DHT22;4613;48.392;9.998;2023-06-14T00:20:37;16.00;77.50
9157;DHT22;4613;48.392;9.998;2023-06-14T00:23:26;15.90;77.00
9157;DHT22;4613;48.392;9.998;2023-06-14T00:26:16;16.40;76.30
9157;DHT22;4613;48.392;9.998;2023-06-14T00:29:07;16.20;77.10
9157;DHT22;4613;48.392;9.998;2023-06-14T00:31:56;16.20;76.70
9157;DHT22;4613;48.392;9.998;2023-06-14T00:34:45;16.20;76.50
9157;DHT22;4613;48.392;9.998;2023-06-14T00:37:34;16.00;76.70
9157;DHT22;4613;48.392;9.998;2023-06-14T00:40:24;16.10;76.60
9157;DHT22;4613;48.392;9.998;2023-06-14T00:43:13;16.00;76.70
9157;DHT22;4613;48.392;9.998;2023-06-14T00:46:03;16.30;76.50
9157;DHT22;4613;48.392;9.998;2023-06-14T00:48:53;16.40;76.40
9157;DHT22;4613;48.392;9.998;2023-06-14T00:51:42;16.20;76.40
9157;DHT22;4613;48.392;9.998;2023-06-14T00:54:31;16.30;76.50
9157;DHT22;4613;48.392;9.998;2023-06-14T00:57:21;16.50;76.20
9157;DHT22;4613;48.392;9.998;2023-06-14T01:00:11;16.60;75.80
9157;DHT22;4613;48.392;9.998;2023-06-14T01:03:01;16.70;75.70
9157;DHT22;4613;48.392;9.998;2023-06-14T01:05:59;16.50;75.90
9157;DHT22;4613;48.392;9.998;2023-06-14T01:09:15;16.20;76.00
9157;DHT22;4613;48.392;9.998;2023-06-14T01:12:11;16.00;76.80
9157;DHT22;4613;48.392;9.998;2023-06-14T01:15:03;16.00;76.80
9157;DHT22;4613;48.392;9.998;2023-06-14T01:17:52;15.50;77.40
9157;DHT22;4613;48.392;9.998;2023-06-14T01:20:44;15.50;78.00
9157;DHT22;4613;48.392;9.998;2023-06-14T01:23:34;15.50;77.90
9157;DHT22;4613;48.392;9.998;2023-06-14T01:26:23;15.60;78.20
9157;DHT22;4613;48.392;9.998;2023-06-14T01:29:15;15.60;77.90
9157;DHT22;4613;48.392;9.998;2023-06-14T01:32:08;15.50;77.60
9157;DHT22;4613;48.392;9.998;2023-06-14T01:34:58;15.50;77.90
9157;DHT22;4613;48.392;9.998;2023-06-14T01:37:51;15.30;77.80
9157;DHT22;4613;48.392;9.998;2023-06-14T01:40:42;15.40;78.50
9157;DHT22;4613;48.392;9.998;2023-06-14T01:43:33;15.40;78.10
9157;DHT22;4613;48.392;9.998;2023-06-14T01:46:23;15.70;77.70
9157;DHT22;4613;48.392;9.998;2023-06-14T01:49:13;15.50;77.40
9157;DHT22;4613;48.392;9.998;2023-06-14T01:52:02;15.30;77.50
9157;DHT22;4613;48.392;9.998;2023-06-14T01:54:51;15.20;78.60
9157;DHT22;4613;48.392;9.998;2023-06-14T01:57:40;15.30;78.40
9157;DHT22;4613;48.392;9.998;2023-06-14T02:00:30;15.10;78.80
9157;DHT22;4613;48.392;9.998;2023-06-14T02:03:20;15.10;78.80
9157;DHT22;4613;48.392;9.998;2023-06-14T02:06:09;15.20;79.10
9157;DHT22;4613;48.392;9.998;2023-06-14T02:09:04;15.20;79.20
9157;DHT22;4613;48.392;9.998;2023-06-14T02:11:53;15.20;79.10
9157;DHT22;4613;48.392;9.998;2023-06-14T02:14:43;15.10;79.20
9157;DHT22;4613;48.392;9.998;2023-06-14T02:17:33;15.10;78.90
9157;DHT22;4613;48.392;9.998;2023-06-14T02:20:28;15.20;79.40
9157;DHT22;4613;48.392;9.998;2023-06-14T02:23:17;15.10;78.40
9157;DHT22;4613;48.392;9.998;2023-06-14T02:26:07;15.20;78.80
9157;DHT22;4613;48.392;9.998;2023-06-14T02:28:57;15.20;78.60
9157;DHT22;4613;48.392;9.998;2023-06-14T02:31:47;15.40;78.40
9157;DHT22;4613;48.392;9.998;2023-06-14T02:34:37;15.50;78.50
9157;DHT22;4613;48.392;9.998;2023-06-14T02:37:30;15.10;78.40
9157;DHT22;4613;48.392;9.998;2023-06-14T02:40:20;15.00;78.80
9157;DHT22;4613;48.392;9.998;2023-06-14T02:43:09;15.00;78.80
9157;DHT22;4613;48.392;9.998;2023-06-14T02:45:58;14.90;79.20
9157;DHT22;4613;48.392;9.998;2023-06-14T02:48:48;14.90;79.80
9157;DHT22;4613;48.392;9.998;2023-06-14T02:51:37;14.80;79.10
9157;DHT22;4613;48.392;9.998;2023-06-14T02:54:32;14.90;78.60
9157;DHT22;4613;48.392;9.998;2023-06-14T02:57:22;14.80;79.50
9157;DHT22;4613;48.392;9.998;2023-06-14T03:00:13;14.80;78.80
9157;DHT22;4613;48.392;9.998;2023-06-14T03:03:04;14.70;78.60
9157;DHT22;4613;48.392;9.998;2023-06-14T03:05:54;14.70;78.90
9157;DHT22;4613;48.392;9.998;2023-06-14T03:08:47;14.80;79.30
9157;DHT22;4613;48.392;9.998;2023-06-14T03:11:38;14.80;79.70
9157;DHT22;4613;48.392;9.998;2023-06-14T03:14:28;15.10;79.20
9157;DHT22;4613;48.392;9.998;2023-06-14T03:17:19;15.10;79.20
9157;DHT22;4613;48.392;9.998;2023-06-14T03:20:09;14.80;78.70
9157;DHT22;4613;48.392;9.998;2023-06-14T03:23:00;14.50;79.40
9157;DHT22;4613;48.392;9.998;2023-06-14T03:25:50;14.90;79.50
9157;DHT22;4613;48.392;9.998;2023-06-14T03:28:41;14.60;78.80
9157;DHT22;4613;48.392;9.998;2023-06-14T03:31:30;14.60;78.70
9157;DHT22;4613;48.392;9.998;2023-06-14T03:34:23;14.50;79.00
9157;DHT22;4613;48.392;9.998;2023-06-14T03:37:12;14.90;79.80
9157;DHT22;4613;48.392;9.998;2023-06-14T03:40:02;14.60;79.50
9157;DHT22;4613;48.392;9.998;2023-06-14T03:42:56;15.00;78.40
9157;DHT22;4613;48.392;9.998;2023-06-14T03:45:46;15.10;78.50
9157;DHT22;4613;48.392;9.998;2023-06-14T03:48:37;14.70;78.50
9157;DHT22;4613;48.392;9.998;2023-06-14T03:51:27;15.10;78.50
9157;DHT22;4613;48.392;9.998;2023-06-14T03:54:17;15.40;78.10
9157;DHT22;4613;48.392;9.998;2023-06-14T03:57:07;15.20;77.70
9157;DHT22;4613;48.392;9.998;2023-06-14T03:59:57;14.90;79.00
9157;DHT22;4613;48.392;9.998;2023-06-14T04:02:47;14.90;79.40
9157;DHT22;4613;48.392;9.998;2023-06-14T04:05:36;15.00;78.60
9157;DHT22;4613;48.392;9.998;2023-06-14T04:08:27;15.20;78.70
9157;DHT22;4613;48.392;9.998;2023-06-14T04:11:16;15.30;78.70
9157;DHT22;4613;48.392;9.998;2023-06-14T04:14:05;15.10;79.20
9157;DHT22;4613;48.392;9.998;2023-06-14T04:16:55;15.20;80.20
9157;DHT22;4613;48.392;9.998;2023-06-14T04:19:44;15.40;79.70
9157;DHT22;4613;48.392;9.998;2023-06-14T04:22:35;15.80;78.90
9157;DHT22;4613;48.392;9.998;2023-06-14T04:25:25;16.10;78.90
9157;DHT22;4613;48.392;9.998;2023-06-14T04:28:18;16.30;78.50
9157;DHT22;4613;48.392;9.998;2023-06-14T04:31:09;16.20;78.20
9157;DHT22;4613;48.392;9.998;2023-06-14T04:33:59;16.00;78.20
9157;DHT22;4613;48.392;9.998;2023-06-14T04:36:49;15.80;78.20
9157;DHT22;4613;48.392;9.998;2023-06-14T04:39:39;15.90;78.40
9157;DHT22;4613;48.392;9.998;2023-06-14T04:42:29;16.10;77.60
9157;DHT22;4613;48.392;9.998;2023-06-14T04:45:21;16.10;79.00
9157;DHT22;4613;48.392;9.998;2023-06-14T04:48:11;16.40;79.00
9157;DHT22;4613;48.392;9.998;2023-06-14T04:51:01;16.50;78.90
9157;DHT22;4613;48.392;9.998;2023-06-14T04:53:52;17.00;78.60
9157;DHT22;4613;48.392;9.998;2023-06-14T04:56:47;16.70;77.20
9157;DHT22;4613;48.392;9.998;2023-06-14T04:59:36;16.80;78.60
9157;DHT22;4613;48.392;9.998;2023-06-14T05:02:25;16.80;77.50
9157;DHT22;4613;48.392;9.998;2023-06-14T05:05:17;17.20;77.80
9157;DHT22;4613;48.392;9.998;2023-06-14T05:08:07;17.40;75.80
9157;DHT22;4613;48.392;9.998;2023-06-14T05:10:57;17.70;74.10
9157;DHT22;4613;48.392;9.998;2023-06-14T05:13:47;17.70;74.20
9157;DHT22;4613;48.392;9.998;2023-06-14T05:16:37;17.70;74.00
9157;DHT22;4613;48.392;9.998;2023-06-14T05:19:26;17.90;74.50
9157;DHT22;4613;48.392;9.998;2023-06-14T05:22:15;18.00;73.90
9157;DHT22;4613;48.392;9.998;2023-06-14T05:25:04;18.10;73.30
9157;DHT22;4613;48.392;9.998;2023-06-14T05:27:54;17.80;73.20
9157;DHT22;4613;48.392;9.998;2023-06-14T05:30:43;17.90;72.60
9157;DHT22;4613;48.392;9.998;2023-06-14T05:33:32;18.10;73.40
9157;DHT22;4613;48.392;9.998;2023-06-14T05:36:21;18.20;72.70
9157;DHT22;4613;48.392;9.998;2023-06-14T05:39:11;18.50;72.90
9157;DHT22;4613;48.392;9.998;2023-06-14T05:42:01;18.50;72.90
9157;DHT22;4613;48.392;9.998;2023-06-14T05:44:50;18.50;72.90
9157;DHT22;4613;48.392;9.998;2023-06-14T05:47:39;18.40;72.80
9157;DHT22;4613;48.392;9.998;2023-06-14T05:50:29;17.80;73.60
9157;DHT22;4613;48.392;9.998;2023-06-14T05:53:18;18.20;73.30
9157;DHT22;4613;48.392;9.998;2023-06-14T05:56:07;18.30;72.80
9157;DHT22;4613;48.392;9.998;2023-06-14T05:58:57;18.10;73.00
9157;DHT22;4613;48.392;9.998;2023-06-14T06:01:46;18.60;72.60
9157;DHT22;4613;48.392;9.998;2023-06-14T06:04:35;18.80;72.50
9157;DHT22;4613;48.392;9.998;2023-06-14T06:07:24;18.90;71.80
9157;DHT22;4613;48.392;9.998;2023-06-14T06:10:13;19.00;71.80
9157;DHT22;4613;48.392;9.998;2023-06-14T06:13:03;19.30;72.00
9157;DHT22;4613;48.392;9.998;2023-06-14T06:15:52;19.30;72.10
9157;DHT22;4613;48.392;9.998;2023-06-14T06:18:41;19.10;73.00
9157;DHT22;4613;48.392;9.998;2023-06-14T06:21:30;19.10;72.50
9157;DHT22;4613;48.392;9.998;2023-06-14T06:24:20;19.20;73.00
9157;DHT22;4613;48.392;9.998;2023-06-14T06:27:09;19.00;72.90
9157;DHT22;4613;48.392;9.998;2023-06-14T06:29:59;19.00;73.10
9157;DHT22;4613;48.392;9.998;2023-06-14T06:32:49;19.00;72.90
9157;DHT22;4613;48.392;9.998;2023-06-14T06:35:39;19.30;72.70
9157;DHT22;4613;48.392;9.998;2023-06-14T06:38:29;19.50;72.80
9157;DHT22;4613;48.392;9.998;2023-06-14T06:41:18;19.50;73.10
9157;DHT22;4613;48.392;9.998;2023-06-14T06:44:08;19.40;72.60
9157;DHT22;4613;48.392;9.998;2023-06-14T06:47:01;19.30;72.80
9157;DHT22;4613;48.392;9.998;2023-06-14T06:49:52;19.50;72.90
9157;DHT22;4613;48.392;9.998;2023-06-14T06:52:41;19.50;72.90
9157;DHT22;4613;48.392;9.998;2023-06-14T06:55:32;19.80;73.00
9157;DHT22;4613;48.392;9.998;2023-06-14T06:58:21;20.00;72.90
9157;DHT22;4613;48.392;9.998;2023-06-14T07:01:11;19.90;72.90
9157;DHT22;4613;48.392;9.998;2023-06-14T07:04:00;19.80;72.70
9157;DHT22;4613;48.392;9.998;2023-06-14T07:06:50;20.00;72.60
9157;DHT22;4613;48.392;9.998;2023-06-14T07:09:39;20.10;73.20
9157;DHT22;4613;48.392;9.998;2023-06-14T07:12:31;19.80;73.50
9157;DHT22;4613;48.392;9.998;2023-06-14T07:15:22;20.00;73.70
9157;DHT22;4613;48.392;9.998;2023-06-14T07:18:12;20.10;73.00
9157;DHT22;4613;48.392;9.998;2023-06-14T07:21:01;20.20;73.10
9157;DHT22;4613;48.392;9.998;2023-06-14T07:23:51;20.20;73.10
9157;DHT22;4613;48.392;9.998;2023-06-14T07:26:40;20.60;72.90
9157;DHT22;4613;48.392;9.998;2023-06-14T07:29:29;20.70;73.20
9157;DHT22;4613;48.392;9.998;2023-06-14T07:32:18;20.50;73.70
9157;DHT22;4613;48.392;9.998;2023-06-14T07:35:09;20.60;72.90
9157;DHT22;4613;48.392;9.998;2023-06-14T07:37:58;20.40;72.90
9157;DHT22;4613;48.392;9.998;2023-06-14T07:40:48;20.70;73.70
9157;DHT22;4613;48.392;9.998;2023-06-14T07:43:36;20.80;73.40
9157;DHT22;4613;48.392;9.998;2023-06-14T07:46:26;20.80;73.40
9157;DHT22;4613;48.392;9.998;2023-06-14T07:49:15;21.00;72.30
9157;DHT22;4613;48.392;9.998;2023-06-14T07:52:05;21.00;72.40
9157;DHT22;4613;48.392;9.998;2023-06-14T07:54:54;20.90;72.60
9157;DHT22;4613;48.392;9.998;2023-06-14T07:57:44;21.00;72.00
9157;DHT22;4613;48.392;9.998;2023-06-14T08:00:33;21.10;71.40
9157;DHT22;4613;48.392;9.998;2023-06-14T08:03:23;21.20;71.00
9157;DHT22;4613;48.392;9.998;2023-06-14T08:06:13;21.30;71.70
9157;DHT22;4613;48.392;9.998;2023-06-14T08:09:02;21.00;72.60
9157;DHT22;4613;48.392;9.998;2023-06-14T08:11:52;21.20;71.20
9157;DHT22;4613;48.392;9.998;2023-06-14T08:14:42;21.40;71.90
9157;DHT22;4613;48.392;9.998;2023-06-14T08:17:31;21.40;72.80
9157;DHT22;4613;48.392;9.998;2023-06-14T08:20:20;21.70;72.90
9157;DHT22;4613;48.392;9.998;2023-06-14T08:23:10;21.70;72.60
9157;DHT22;4613;48.392;9.998;2023-06-14T08:26:00;22.10;71.60
9157;DHT22;4613;48.392;9.998;2023-06-14T08:28:50;21.90;71.80
9157;DHT22;4613;48.392;9.998;2023-06-14T08:31:39;22.00;71.30
9157;DHT22;4613;48.392;9.998;2023-06-14T08:34:29;22.10;71.40
9157;DHT22;4613;48.392;9.998;2023-06-14T08:37:18;22.40;69.80
9157;DHT22;4613;48.392;9.998;2023-06-14T08:40:22;22.50;71.30
9157;DHT22;4613;48.392;9.998;2023-06-14T08:43:11;22.40;72.00
9157;DHT22;4613;48.392;9.998;2023-06-14T08:46:03;22.60;71.80
9157;DHT22;4613;48.392;9.998;2023-06-14T08:48:52;22.60;69.60
9157;DHT22;4613;48.392;9.998;2023-06-14T08:51:46;22.50;69.70
9157;DHT22;4613;48.392;9.998;2023-06-14T08:54:41;22.50;68.50
9157;DHT22;4613;48.392;9.998;2023-06-14T08:57:32;22.70;68.30
9157;DHT22;4613;48.392;9.998;2023-06-14T09:00:25;22.80;66.90
9157;DHT22;4613;48.392;9.998;2023-06-14T09:03:14;23.10;67.40
9157;DHT22;4613;48.392;9.998;2023-06-14T09:06:04;23.30;68.50
9157;DHT22;4613;48.392;9.998;2023-06-14T09:08:55;23.20;67.70
9157;DHT22;4613;48.392;9.998;2023-06-14T09:11:47;23.00;67.50
9157;DHT22;4613;48.392;9.998;2023-06-14T09:14:37;23.30;68.40
9157;DHT22;4613;48.392;9.998;2023-06-14T09:17:28;23.10;69.20
9157;DHT22;4613;48.392;9.998;2023-06-14T09:20:17;23.10;68.10
9157;DHT22;4613;48.392;9.998;2023-06-14T09:23:08;23.10;66.90
9157;DHT22;4613;48.392;9.998;2023-06-14T09:25:57;23.40;67.10
9157;DHT22;4613;48.392;9.998;2023-06-14T09:28:48;23.20;68.10
9157;DHT22;4613;48.392;9.998;2023-06-14T09:31:38;23.40;68.00
9157;DHT22;4613;48.392;9.998;2023-06-14T09:34:27;23.30;67.50
9157;DHT22;4613;48.392;9.998;2023-06-14T09:37:28;23.50;67.70
9157;DHT22;4613;48.392;9.998;2023-06-14T09:40:20;23.40;66.90
9157;DHT22;4613;48.392;9.998;2023-06-14T09:43:10;23.40;66.20
9157;DHT22;4613;48.392;9.998;2023-06-14T09:46:03;23.30;67.20
9157;DHT22;4613;48.392;9.998;2023-06-14T09:48:53;23.50;67.30
9157;DHT22;4613;48.392;9.998;2023-06-14T09:51:45;23.50;64.00
9157;DHT22;4613;48.392;9.998;2023-06-14T09:54:37;23.50;63.60
9157;DHT22;4613;48.392;9.998;2023-06-14T09:57:29;23.20;64.30
9157;DHT22;4613;48.392;9.998;2023-06-14T10:00:22;23.40;63.60
9157;DHT22;4613;48.392;9.998;2023-06-14T10:03:14;23.40;63.10
9157;DHT22;4613;48.392;9.998;2023-06-14T10:06:05;23.90;64.20
9157;DHT22;4613;48.392;9.998;2023-06-14T10:08:57;24.20;63.00
9157;DHT22;4613;48.392;9.998;2023-06-14T10:11:49;23.80;63.30
9157;DHT22;4613;48.392;9.998;2023-06-14T10:14:39;23.80;63.10
9157;DHT22;4613;48.392;9.998;2023-06-14T10:17:47;24.00;63.80
9157;DHT22;4613;48.392;9.998;2023-06-14T10:21:02;23.50;63.80
9157;DHT22;4613;48.392;9.998;2023-06-14T10:23:56;23.00;64.40
9157;DHT22;4613;48.392;9.998;2023-06-14T10:26:51;23.50;64.60
9157;DHT22;4613;48.392;9.998;2023-06-14T10:33:06;23.70;63.60
9157;DHT22;4613;48.392;9.998;2023-06-14T10:36:27;23.90;63.10
9157;DHT22;4613;48.392;9.998;2023-06-14T10:39:17;23.80;62.70
9157;DHT22;4613;48.392;9.998;2023-06-14T10:42:08;23.90;63.60
9157;DHT22;4613;48.392;9.998;2023-06-14T10:44:59;24.20;63.50
9157;DHT22;4613;48.392;9.998;2023-06-14T10:47:49;24.00;62.60
9157;DHT22;4613;48.392;9.998;2023-06-14T10:50:42;23.90;62.90
9157;DHT22;4613;48.392;9.998;2023-06-14T10:53:40;24.00;62.40
9157;DHT22;4613;48.392;9.998;2023-06-14T10:56:30;24.30;62.00
9157;DHT22;4613;48.392;9.998;2023-06-14T10:59:20;24.10;61.70
9157;DHT22;4613;48.392;9.998;2023-06-14T11:05:14;24.30;62.30
9157;DHT22;4613;48.392;9.998;2023-06-14T11:11:32;23.60;61.00
9157;DHT22;4613;48.392;9.998;2023-06-14T11:14:23;23.60;61.70
9157;DHT22;4613;48.392;9.998;2023-06-14T11:17:12;23.50;61.20
9157;DHT22;4613;48.392;9.998;2023-06-14T11:20:11;23.50;62.20
9157;DHT22;4613;48.392;9.998;2023-06-14T11:23:05;23.80;62.20
9157;DHT22;4613;48.392;9.998;2023-06-14T11:25:54;23.60;62.80
9157;DHT22;4613;48.392;9.998;2023-06-14T11:28:43;23.50;62.30
9157;DHT22;4613;48.392;9.998;2023-06-14T11:31:32;23.90;62.80
9157;DHT22;4613;48.392;9.998;2023-06-14T11:34:21;24.20;62.40
9157;DHT22;4613;48.392;9.998;2023-06-14T11:37:11;24.20;62.20
9157;DHT22;4613;48.392;9.998;2023-06-14T11:40:01;23.80;62.00
9157;DHT22;4613;48.392;9.998;2023-06-14T11:42:58;24.00;62.50
9157;DHT22;4613;48.392;9.998;2023-06-14T11:45:49;23.70;62.60
9157;DHT22;4613;48.392;9.998;2023-06-14T11:48:42;23.90;62.80
9157;DHT22;4613;48.392;9.998;2023-06-14T11:51:33;24.10;61.30
9157;DHT22;4613;48.392;9.998;2023-06-14T11:54:23;24.20;61.20
9157;DHT22;4613;48.392;9.998;2023-06-14T11:57:12;24.20;60.00
9157;DHT22;4613;48.392;9.998;2023-06-14T12:00:06;24.20;59.40
9157;DHT22;4613;48.392;9.998;2023-06-14T12:03:04;24.00;58.80
9157;DHT22;4613;48.392;9.998;2023-06-14T12:06:07;24.40;59.10
9157;DHT22;4613;48.392;9.998;2023-06-14T12:08:57;24.40;58.60
9157;DHT22;4613;48.392;9.998;2023-06-14T12:11:46;24.10;58.60
9157;DHT22;4613;48.392;9.998;2023-06-14T12:14:36;24.00;59.10
9157;DHT22;4613;48.392;9.998;2023-06-14T12:17:25;24.10;59.60
9157;DHT22;4613;48.392;9.998;2023-06-14T12:20:14;24.20;58.00
9157;DHT22;4613;48.392;9.998;2023-06-14T12:23:05;24.20;59.20
9157;DHT22;4613;48.392;9.998;2023-06-14T12:25:59;24.30;58.70
9157;DHT22;4613;48.392;9.998;2023-06-14T12:28:49;24.20;58.20
9157;DHT22;4613;48.392;9.998;2023-06-14T12:31:39;24.60;58.50
9157;DHT22;4613;48.392;9.998;2023-06-14T12:34:28;24.50;59.20
9157;DHT22;4613;48.392;9.998;2023-06-14T12:37:18;24.60;59.30
9157;DHT22;4613;48.392;9.998;2023-06-14T12:40:07;24.30;59.60
9157;DHT22;4613;48.392;9.998;2023-06-14T12:42:57;24.40;59.30
9157;DHT22;4613;48.392;9.998;2023-06-14T12:45:48;24.30;59.30
9157;DHT22;4613;48.392;9.998;2023-06-14T12:48:37;24.40;59.60
9157;DHT22;4613;48.392;9.998;2023-06-14T12:51:26;24.00;59.40
9157;DHT22;4613;48.392;9.998;2023-06-14T12:54:15;24.20;60.10
9157;DHT22;4613;48.392;9.998;2023-06-14T12:57:04;24.30;59.80
9157;DHT22;4613;48.392;9.998;2023-06-14T12:59:53;24.20;59.40
9157;DHT22;4613;48.392;9.998;2023-06-14T13:02:43;24.00;59.50
9157;DHT22;4613;48.392;9.998;2023-06-14T13:05:33;23.90;59.80
9157;DHT22;4613;48.392;9.998;2023-06-14T13:08:22;23.80;60.00
9157;DHT22;4613;48.392;9.998;2023-06-14T13:11:12;23.70;59.90
9157;DHT22;4613;48.392;9.998;2023-06-14T13:14:01;23.70;60.50
9157;DHT22;4613;48.392;9.998;2023-06-14T13:16:51;24.10;60.10
9157;DHT22;4613;48.392;9.998;2023-06-14T13:19:40;24.10;59.30
9157;DHT22;4613;48.392;9.998;2023-06-14T13:22:31;24.30;59.20
9157;DHT22;4613;48.392;9.998;2023-06-14T13:25:21;24.00;59.10
9157;DHT22;4613;48.392;9.998;2023-06-14T13:28:11;24.00;59.40
9157;DHT22;4613;48.392;9.998;2023-06-14T13:31:00;24.00;60.00
9157;DHT22;4613;48.392;9.998;2023-06-14T13:33:50;23.90;59.20
9157;DHT22;4613;48.392;9.998;2023-06-14T13:36:39;24.00;59.70
9157;DHT22;4613;48.392;9.998;2023-06-14T13:39:31;23.90;59.40
9157;DHT22;4613;48.392;9.998;2023-06-14T13:42:20;23.90;58.70
9157;DHT22;4613;48.392;9.998;2023-06-14T13:45:11;24.00;59.10
9157;DHT22;4613;48.392;9.998;2023-06-14T13:48:01;24.30;58.80
9157;DHT22;4613;48.392;9.998;2023-06-14T13:50:50;24.50;58.80
9157;DHT22;4613;48.392;9.998;2023-06-14T13:53:40;24.60;58.40
9157;DHT22;4613;48.392;9.998;2023-06-14T13:56:29;24.40;58.30
9157;DHT22;4613;48.392;9.998;2023-06-14T13:59:19;24.60;58.50
9157;DHT22;4613;48.392;9.998;2023-06-14T14:02:08;24.40;58.60
9157;DHT22;4613;48.392;9.998;2023-06-14T14:04:59;24.70;58.50
9157;DHT22;4613;48.392;9.998;2023-06-14T14:07:49;24.50;57.90
9157;DHT22;4613;48.392;9.998;2023-06-14T14:10:37;24.10;58.20
9157;DHT22;4613;48.392;9.998;2023-06-14T14:13:27;24.10;58.50
9157;DHT22;4613;48.392;9.998;2023-06-14T14:16:17;24.40;57.90
9157;DHT22;4613;48.392;9.998;2023-06-14T14:19:07;24.10;58.00
9157;DHT22;4613;48.392;9.998;2023-06-14T14:21:57;23.80;59.00
9157;DHT22;4613;48.392;9.998;2023-06-14T14:24:46;23.80;59.40
9157;DHT22;4613;48.392;9.998;2023-06-14T14:27:36;24.10;58.90
9157;DHT22;4613;48.392;9.998;2023-06-14T14:30:25;24.00;59.20
9157;DHT22;4613;48.392;9.998;2023-06-14T14:33:14;24.00;59.10
9157;DHT22;4613;48.392;9.998;2023-06-14T14:36:06;23.90;59.00
9157;DHT22;4613;48.392;9.998;2023-06-14T14:38:56;23.70;59.10
9157;DHT22;4613;48.392;9.998;2023-06-14T14:41:45;23.50;59.40
9157;DHT22;4613;48.392;9.998;2023-06-14T14:44:35;23.60;59.40
9157;DHT22;4613;48.392;9.998;2023-06-14T14:47:24;23.90;59.20
9157;DHT22;4613;48.392;9.998;2023-06-14T14:50:13;23.80;59.40
9157;DHT22;4613;48.392;9.998;2023-06-14T14:53:04;24.00;59.50
9157;DHT22;4613;48.392;9.998;2023-06-14T14:55:53;24.10;59.40
9157;DHT22;4613;48.392;9.998;2023-06-14T14:58:43;24.40;59.30
9157;DHT22;4613;48.392;9.998;2023-06-14T15:01:33;24.50;59.30
9157;DHT22;4613;48.392;9.998;2023-06-14T15:04:23;24.60;59.30
9157;DHT22;4613;48.392;9.998;2023-06-14T15:07:12;24.50;59.30
9157;DHT22;4613;48.392;9.998;2023-06-14T15:10:02;24.60;59.70
9157;DHT22;4613;48.392;9.998;2023-06-14T15:12:51;24.60;59.80
9157;DHT22;4613;48.392;9.998;2023-06-14T15:15:41;24.50;59.90
9157;DHT22;4613;48.392;9.998;2023-06-14T15:18:30;24.30;59.70
9157;DHT22;4613;48.392;9.998;2023-06-14T15:21:20;24.10;59.60
9157;DHT22;4613;48.392;9.998;2023-06-14T15:24:11;24.20;59.60
9157;DHT22;4613;48.392;9.998;2023-06-14T15:27:00;24.50;59.50
9157;DHT22;4613;48.392;9.998;2023-06-14T15:29:49;24.40;59.30
9157;DHT22;4613;48.392;9.998;2023-06-14T15:32:38;24.40;59.70
9157;DHT22;4613;48.392;9.998;2023-06-14T15:35:27;24.70;59.40
9157;DHT22;4613;48.392;9.998;2023-06-14T15:38:17;24.70;59.50
9157;DHT22;4613;48.392;9.998;2023-06-14T15:41:06;24.90;59.70
9157;DHT22;4613;48.392;9.998;2023-06-14T15:43:57;24.90;59.40
9157;DHT22;4613;48.392;9.998;2023-06-14T15:46:46;24.60;59.10
9157;DHT22;4613;48.392;9.998;2023-06-14T15:49:36;24.40;59.20
9157;DHT22;4613;48.392;9.998;2023-06-14T15:52:25;24.10;59.90
9157;DHT22;4613;48.392;9.998;2023-06-14T15:55:18;23.90;61.50
9157;DHT22;4613;48.392;9.998;2023-06-14T15:58:07;24.20;60.40
9157;DHT22;4613;48.392;9.998;2023-06-14T16:00:57;24.40;60.60
9157;DHT22;4613;48.392;9.998;2023-06-14T16:03:47;24.20;60.90
9157;DHT22;4613;48.392;9.998;2023-06-14T16:06:37;24.00;61.90
9157;DHT22;4613;48.392;9.998;2023-06-14T16:09:26;23.90;61.10
9157;DHT22;4613;48.392;9.998;2023-06-14T16:12:15;24.00;62.10
9157;DHT22;4613;48.392;9.998;2023-06-14T16:15:05;24.00;61.50
9157;DHT22;4613;48.392;9.998;2023-06-14T16:17:55;24.10;61.50
9157;DHT22;4613;48.392;9.998;2023-06-14T16:20:44;24.10;61.40
9157;DHT22;4613;48.392;9.998;2023-06-14T16:23:34;24.20;60.80
9157;DHT22;4613;48.392;9.998;2023-06-14T16:26:23;24.10;60.60
9157;DHT22;4613;48.392;9.998;2023-06-14T16:29:12;24.10;60.90
9157;DHT22;4613;48.392;9.998;2023-06-14T16:32:03;24.00;62.10
9157;DHT22;4613;48.392;9.998;2023-06-14T16:34:52;23.90;61.20
9157;DHT22;4613;48.392;9.998;2023-06-14T16:37:42;23.90;61.80
9157;DHT22;4613;48.392;9.998;2023-06-14T16:40:31;24.00;61.50
9157;DHT22;4613;48.392;9.998;2023-06-14T16:43:20;24.00;60.80
9157;DHT22;4613;48.392;9.998;2023-06-14T16:46:10;23.90;61.70
9157;DHT22;4613;48.392;9.998;2023-06-14T16:49:01;23.90;61.80
9157;DHT22;4613;48.392;9.998;2023-06-14T16:51:50;23.90;61.60
9157;DHT22;4613;48.392;9.998;2023-06-14T16:54:39;23.90;61.50
9157;DHT22;4613;48.392;9.998;2023-06-14T16:57:28;23.80;61.50
9157;DHT22;4613;48.392;9.998;2023-06-14T17:00:18;23.70;61.40
9157;DHT22;4613;48.392;9.998;2023-06-14T17:03:08;23.70;60.60
9157;DHT22;4613;48.392;9.998;2023-06-14T17:05:58;23.70;60.70
9157;DHT22;4613;48.392;9.998;2023-06-14T17:08:47;23.70;62.50
9157;DHT22;4613;48.392;9.998;2023-06-14T17:11:37;23.80;61.50
9157;DHT22;4613;48.392;9.998;2023-06-14T17:14:26;23.70;62.60
9157;DHT22;4613;48.392;9.998;2023-06-14T17:17:15;23.60;61.70
9157;DHT22;4613;48.392;9.998;2023-06-14T17:20:05;23.70;62.10
9157;DHT22;4613;48.392;9.998;2023-06-14T17:22:54;23.50;62.30
9157;DHT22;4613;48.392;9.998;2023-06-14T17:25:45;23.50;62.00
9157;DHT22;4613;48.392;9.998;2023-06-14T17:28:35;23.40;62.70
9157;DHT22;4613;48.392;9.998;2023-06-14T17:31:28;23.30;62.80
9157;DHT22;4613;48.392;9.998;2023-06-14T17:34:17;23.40;63.10
9157;DHT22;4613;48.392;9.998;2023-06-14T17:37:06;23.10;64.00
9157;DHT22;4613;48.392;9.998;2023-06-14T17:39:55;22.90;64.00
9157;DHT22;4613;48.392;9.998;2023-06-14T17:42:45;22.90;64.10
9157;DHT22;4613;48.392;9.998;2023-06-14T17:45:34;22.90;64.40
9157;DHT22;4613;48.392;9.998;2023-06-14T17:48:24;22.90;64.50
9157;DHT22;4613;48.392;9.998;2023-06-14T17:51:13;22.90;64.00
9157;DHT22;4613;48.392;9.998;2023-06-14T17:54:04;23.00;64.20
9157;DHT22;4613;48.392;9.998;2023-06-14T17:56:53;23.00;64.00
9157;DHT22;4613;48.392;9.998;2023-06-14T17:59:42;23.00;65.60
9157;DHT22;4613;48.392;9.998;2023-06-14T18:02:32;22.80;65.10
9157;DHT22;4613;48.392;9.998;2023-06-14T18:05:21;22.90;65.70
9157;DHT22;4613;48.392;9.998;2023-06-14T18:08:11;22.90;66.20
9157;DHT22;4613;48.392;9.998;2023-06-14T18:11:00;22.60;65.70
9157;DHT22;4613;48.392;9.998;2023-06-14T18:13:49;22.40;65.80
9157;DHT22;4613;48.392;9.998;2023-06-14T18:16:40;22.30;65.70
9157;DHT22;4613;48.392;9.998;2023-06-14T18:19:30;22.40;65.90
9157;DHT22;4613;48.392;9.998;2023-06-14T18:22:20;22.30;66.20
9157;DHT22;4613;48.392;9.998;2023-06-14T18:25:09;22.40;66.30
9157;DHT22;4613;48.392;9.998;2023-06-14T18:27:59;22.30;66.70
9157;DHT22;4613;48.392;9.998;2023-06-14T18:30:49;22.20;67.10
9157;DHT22;4613;48.392;9.998;2023-06-14T18:33:38;22.20;67.30
9157;DHT22;4613;48.392;9.998;2023-06-14T18:36:28;22.00;67.30
9157;DHT22;4613;48.392;9.998;2023-06-14T18:39:17;22.00;67.70
9157;DHT22;4613;48.392;9.998;2023-06-14T18:42:08;22.00;67.80